createdAt,value
2017-08-31T00:00:20.989Z,5.87
2017-08-31T00:02:48.755Z,6.20
2017-08-31T00:05:16.608Z,6.40
2017-08-31T00:07:44.329Z,6.10
2017-08-31T00:10:12.044Z,6.07
2017-08-31T00:12:39.779Z,5.50
2017-08-31T00:15:07.557Z,6.03
2017-08-31T00:17:35.323Z,6.77
2017-08-31T00:20:03.107Z,6.03
2017-08-31T00:22:30.836Z,6.60
2017-08-31T00:24:58.558Z,6.53
2017-08-31T00:27:26.437Z,5.67
2017-08-31T00:29:54.158Z,6.17
2017-08-31T00:32:21.932Z,5.60
2017-08-31T00:34:49.735Z,6.73
2017-08-31T00:37:17.511Z,6.23
2017-08-31T00:39:46.174Z,6.00
2017-08-31T00:42:13.945Z,5.73
2017-08-31T00:44:41.662Z,5.53
2017-08-31T00:47:09.434Z,6.00
2017-08-31T00:49:37.161Z,5.77
2017-08-31T00:52:04.889Z,6.70
2017-08-31T00:54:32.661Z,6.10
2017-08-31T00:57:00.442Z,6.03
2017-08-31T00:59:28.224Z,6.13
2017-08-31T01:01:56.092Z,6.17
2017-08-31T01:04:23.814Z,5.30
2017-08-31T01:06:51.531Z,6.53
2017-08-31T01:09:19.336Z,6.60
2017-08-31T01:11:47.119Z,5.83
2017-08-31T01:14:14.925Z,6.60
2017-08-31T01:16:42.719Z,6.53
2017-08-31T01:19:10.487Z,6.07
2017-08-31T01:21:38.253Z,6.30
2017-08-31T01:24:05.970Z,5.90
2017-08-31T01:26:33.739Z,5.83
2017-08-31T01:29:01.507Z,6.40
2017-08-31T01:31:29.229Z,6.77
2017-08-31T01:33:56.945Z,5.87
2017-08-31T01:36:24.674Z,6.60
2017-08-31T01:38:52.419Z,6.20
2017-08-31T01:41:20.189Z,5.93
2017-08-31T01:43:47.909Z,6.67
2017-08-31T01:46:15.780Z,6.80
2017-08-31T01:48:43.488Z,6.40
2017-08-31T01:51:11.271Z,5.80
2017-08-31T01:53:39.139Z,6.70
2017-08-31T01:56:06.912Z,6.37
2017-08-31T01:58:34.629Z,6.03
2017-08-31T02:01:02.407Z,7.30
2017-08-31T02:03:30.181Z,7.33
2017-08-31T02:05:57.948Z,6.00
2017-08-31T02:08:25.685Z,7.20
2017-08-31T02:10:53.455Z,6.43
2017-08-31T02:13:21.195Z,6.47
2017-08-31T02:15:48.946Z,6.50
2017-08-31T02:18:16.677Z,6.93
2017-08-31T02:20:44.399Z,6.50
2017-08-31T02:23:12.180Z,5.97
2017-08-31T02:25:39.895Z,6.63
2017-08-31T02:28:07.680Z,6.07
2017-08-31T02:30:35.475Z,6.83
2017-08-31T02:33:03.259Z,7.53
2017-08-31T02:35:31.033Z,7.30
2017-08-31T02:37:58.845Z,7.20
2017-08-31T02:40:26.582Z,7.63
2017-08-31T02:42:54.294Z,7.03
2017-08-31T02:45:22.156Z,6.80
2017-08-31T02:47:49.872Z,7.30
2017-08-31T02:50:17.649Z,6.60
2017-08-31T02:52:45.466Z,6.40
2017-08-31T02:55:13.178Z,5.93
2017-08-31T02:57:40.900Z,8.17
2017-08-31T03:00:08.714Z,6.27
2017-08-31T03:02:36.426Z,5.97
2017-08-31T03:05:04.199Z,5.97
2017-08-31T03:07:32.058Z,6.27
2017-08-31T03:09:59.777Z,7.60
2017-08-31T03:12:27.566Z,7.47
2017-08-31T03:14:55.387Z,6.90
2017-08-31T03:17:23.109Z,8.07
2017-08-31T03:19:50.838Z,7.67
2017-08-31T03:22:18.637Z,7.40
2017-08-31T03:24:46.368Z,8.80
2017-08-31T03:27:14.092Z,8.60
2017-08-31T03:29:41.824Z,9.20
2017-08-31T03:32:09.594Z,9.90
2017-08-31T03:34:37.321Z,9.07
2017-08-31T03:37:05.180Z,10.43
2017-08-31T03:39:32.891Z,10.60
2017-08-31T03:42:00.612Z,10.03
2017-08-31T03:44:28.344Z,10.10
2017-08-31T03:46:56.074Z,10.73
2017-08-31T03:49:23.864Z,10.40
2017-08-31T03:51:51.597Z,11.70
2017-08-31T03:54:19.373Z,9.10
2017-08-31T03:56:47.087Z,11.90
2017-08-31T03:59:14.908Z,12.03
2017-08-31T04:01:42.637Z,11.37
2017-08-31T04:04:10.419Z,11.80
2017-08-31T04:06:38.167Z,10.63
2017-08-31T04:09:05.963Z,12.57
2017-08-31T04:11:33.689Z,10.97
2017-08-31T04:14:01.556Z,10.93
2017-08-31T04:16:29.288Z,11.30
2017-08-31T04:18:57.066Z,11.10
2017-08-31T04:21:24.940Z,11.90
2017-08-31T04:23:52.722Z,11.70
2017-08-31T04:26:20.509Z,11.33
2017-08-31T04:28:48.287Z,11.90
2017-08-31T04:31:16.071Z,10.97
2017-08-31T04:33:43.872Z,10.80
2017-08-31T04:36:11.647Z,11.80
2017-08-31T04:38:39.436Z,10.97
2017-08-31T04:41:07.171Z,11.10
2017-08-31T04:43:35.060Z,11.87
2017-08-31T04:46:02.843Z,11.00
2017-08-31T04:48:30.615Z,11.50
2017-08-31T04:50:58.331Z,11.80
2017-08-31T04:53:26.111Z,11.77
2017-08-31T04:55:53.835Z,12.30
2017-08-31T04:58:21.657Z,12.23
2017-08-31T05:00:49.436Z,13.37
2017-08-31T05:03:17.174Z,13.90
2017-08-31T05:05:44.951Z,14.90
2017-08-31T05:08:12.672Z,14.20
2017-08-31T05:10:40.411Z,12.27
2017-08-31T05:13:08.271Z,13.40
2017-08-31T05:15:36.057Z,15.83
2017-08-31T05:18:03.828Z,14.97
2017-08-31T05:20:31.611Z,14.77
2017-08-31T05:22:59.344Z,15.30
2017-08-31T05:25:27.099Z,14.90
2017-08-31T05:27:54.835Z,16.40
2017-08-31T05:30:22.609Z,18.00
2017-08-31T05:32:50.340Z,17.03
2017-08-31T05:35:18.211Z,19.03
2017-08-31T05:37:45.947Z,18.20
2017-08-31T05:40:13.676Z,16.80
2017-08-31T05:42:41.463Z,17.90
2017-08-31T05:45:09.186Z,16.80
2017-08-31T05:47:36.960Z,16.40
2017-08-31T05:50:04.854Z,16.07
2017-08-31T05:52:32.645Z,15.37
2017-08-31T05:55:00.420Z,15.20
2017-08-31T05:57:28.228Z,14.67
2017-08-31T05:59:56.035Z,15.00
2017-08-31T06:02:23.841Z,14.93
2017-08-31T06:04:51.550Z,13.73
2017-08-31T06:07:19.335Z,12.57
2017-08-31T06:09:47.072Z,14.10
2017-08-31T06:12:14.800Z,13.70
2017-08-31T06:14:42.529Z,13.03
2017-08-31T06:17:10.299Z,12.90
2017-08-31T06:19:38.029Z,13.00
2017-08-31T06:22:05.759Z,13.30
2017-08-31T06:24:33.476Z,12.33
2017-08-31T06:27:01.289Z,12.63
2017-08-31T06:29:29.094Z,13.03
2017-08-31T06:31:56.807Z,12.67
2017-08-31T06:34:24.673Z,13.20
2017-08-31T06:36:52.456Z,13.53
2017-08-31T06:39:20.228Z,13.40
2017-08-31T06:41:48.043Z,11.83
2017-08-31T06:44:15.771Z,12.77
2017-08-31T06:46:43.557Z,12.43
2017-08-31T06:49:11.420Z,12.40
2017-08-31T06:51:39.205Z,13.90
2017-08-31T06:54:06.981Z,14.70
2017-08-31T06:56:34.792Z,15.10
2017-08-31T06:59:02.568Z,14.83
2017-08-31T07:01:30.344Z,15.20
2017-08-31T07:03:58.223Z,13.90
2017-08-31T07:06:26.012Z,12.80
2017-08-31T07:08:53.827Z,14.60
2017-08-31T07:11:21.615Z,14.37
2017-08-31T07:13:49.356Z,14.27
2017-08-31T07:16:17.076Z,14.13
2017-08-31T07:18:44.878Z,14.00
2017-08-31T07:21:12.656Z,12.50
2017-08-31T07:23:40.449Z,12.10
2017-08-31T07:26:08.197Z,13.17
2017-08-31T07:28:35.917Z,12.40
2017-08-31T07:31:03.660Z,13.50
2017-08-31T07:33:31.471Z,14.40
2017-08-31T07:35:59.195Z,13.80
2017-08-31T07:38:27.210Z,15.30
2017-08-31T07:40:55.020Z,13.93
2017-08-31T07:43:22.736Z,13.70
2017-08-31T07:45:50.456Z,13.87
2017-08-31T07:48:18.256Z,14.53
2017-08-31T07:50:46.027Z,13.97
2017-08-31T07:53:13.831Z,14.63
2017-08-31T07:55:41.573Z,15.20
2017-08-31T07:58:09.367Z,15.17
2017-08-31T08:00:37.085Z,15.40
2017-08-31T08:03:04.871Z,13.20
2017-08-31T08:05:32.606Z,15.47
2017-08-31T08:08:00.380Z,15.03
2017-08-31T08:10:28.262Z,13.83
2017-08-31T08:12:55.996Z,14.97
2017-08-31T08:15:23.721Z,14.00
2017-08-31T08:17:51.532Z,14.43
2017-08-31T08:20:19.288Z,13.23
2017-08-31T08:22:47.073Z,12.53
2017-08-31T08:25:14.863Z,12.10
2017-08-31T08:27:42.643Z,11.60
2017-08-31T08:30:10.376Z,11.93
2017-08-31T08:32:38.258Z,10.23
2017-08-31T08:35:05.992Z,9.90
2017-08-31T08:37:33.780Z,9.73
2017-08-31T08:40:01.513Z,9.53
2017-08-31T08:42:29.244Z,10.03
2017-08-31T08:44:57.037Z,7.90
2017-08-31T08:47:24.781Z,7.50
2017-08-31T08:49:52.513Z,8.37
2017-08-31T08:52:20.190Z,8.80
2017-08-31T08:54:47.992Z,9.37
2017-08-31T08:57:15.740Z,7.57
2017-08-31T08:59:43.527Z,8.10
2017-08-31T09:02:11.274Z,9.33
2017-08-31T09:04:39.047Z,8.07
2017-08-31T09:07:06.832Z,7.90
2017-08-31T09:09:34.651Z,7.67
2017-08-31T09:12:02.371Z,7.10
2017-08-31T09:14:30.156Z,8.17
2017-08-31T09:16:57.956Z,20.93
2017-08-31T09:19:25.731Z,14.40
2017-08-31T09:21:53.459Z,22.63
2017-08-31T09:24:21.172Z,11.60
2017-08-31T09:26:48.894Z,7.30
2017-08-31T09:29:16.692Z,8.90
2017-08-31T09:31:44.427Z,8.17
2017-08-31T09:34:12.222Z,8.27
2017-08-31T09:36:39.968Z,7.00
2017-08-31T09:39:07.697Z,10.07
2017-08-31T09:41:35.422Z,7.83
2017-08-31T09:44:03.153Z,7.50
2017-08-31T09:46:30.888Z,7.17
2017-08-31T09:48:58.668Z,6.67
2017-08-31T09:51:26.444Z,7.40
2017-08-31T09:53:54.171Z,7.17
2017-08-31T09:56:21.896Z,6.40
2017-08-31T09:58:49.692Z,7.67
2017-08-31T10:01:17.562Z,6.23
2017-08-31T10:03:45.289Z,6.00
2017-08-31T10:06:13.020Z,6.00
2017-08-31T10:08:40.876Z,5.73
2017-08-31T10:11:08.669Z,6.30
2017-08-31T10:13:36.405Z,5.43
2017-08-31T10:16:04.152Z,6.35
2017-08-31T10:18:31.927Z,5.93
2017-08-31T10:20:59.708Z,6.23
2017-08-31T10:23:27.433Z,5.87
2017-08-31T10:25:55.153Z,5.60
2017-08-31T10:28:22.879Z,6.03
2017-08-31T10:30:50.660Z,5.87
2017-08-31T10:33:18.428Z,5.07
2017-08-31T10:35:46.152Z,5.73
2017-08-31T10:38:14.020Z,5.30
2017-08-31T10:40:41.792Z,5.20
2017-08-31T10:43:09.575Z,4.47
2017-08-31T10:45:37.308Z,5.10
2017-08-31T10:48:05.090Z,4.73
2017-08-31T10:50:32.874Z,5.33
2017-08-31T10:53:00.695Z,4.30
2017-08-31T10:55:28.504Z,4.50
2017-08-31T10:57:56.227Z,4.00
2017-08-31T11:00:23.968Z,3.70
2017-08-31T11:02:51.686Z,3.73
2017-08-31T11:05:19.456Z,3.90
2017-08-31T11:07:47.231Z,4.37
2017-08-31T11:10:15.003Z,4.43
2017-08-31T11:12:42.789Z,4.07
2017-08-31T11:15:10.583Z,4.47
2017-08-31T11:17:38.338Z,4.03
2017-08-31T11:20:06.056Z,4.03
2017-08-31T11:22:33.777Z,4.50
2017-08-31T11:25:01.505Z,4.43
2017-08-31T11:27:29.281Z,5.27
2017-08-31T11:29:57.228Z,4.37
2017-08-31T11:32:25.082Z,4.47
2017-08-31T11:34:52.910Z,4.10
2017-08-31T11:37:20.595Z,4.43
2017-08-31T11:39:48.322Z,4.20
2017-08-31T11:42:16.091Z,3.90
2017-08-31T11:44:43.859Z,4.13
2017-08-31T11:47:11.590Z,4.40
2017-08-31T11:49:39.380Z,3.80
2017-08-31T11:52:07.239Z,4.03
2017-08-31T11:54:34.955Z,3.90
2017-08-31T11:57:02.698Z,3.20
2017-08-31T11:59:30.497Z,3.30
2017-08-31T12:01:58.229Z,3.83
2017-08-31T12:04:26.007Z,3.80
2017-08-31T12:06:53.863Z,3.37
2017-08-31T12:09:21.580Z,3.97
2017-08-31T12:11:49.296Z,4.30
2017-08-31T12:14:17.188Z,4.30
2017-08-31T12:16:44.903Z,3.80
2017-08-31T12:19:12.611Z,4.90
2017-08-31T12:21:40.491Z,4.93
2017-08-31T12:24:08.195Z,4.20
2017-08-31T12:26:35.986Z,5.00
2017-08-31T12:29:03.761Z,4.60
2017-08-31T12:31:31.529Z,3.97
2017-08-31T12:33:59.295Z,3.87
2017-08-31T12:36:27.115Z,4.33
2017-08-31T12:38:54.907Z,3.93
2017-08-31T12:41:22.975Z,4.33
2017-08-31T12:43:50.777Z,4.30
2017-08-31T12:46:18.506Z,4.40
2017-08-31T12:48:46.223Z,4.73
2017-08-31T12:51:14.089Z,4.50
2017-08-31T12:53:41.803Z,4.00
2017-08-31T12:56:09.581Z,4.47
2017-08-31T12:58:37.387Z,4.33
2017-08-31T13:01:05.111Z,4.47
2017-08-31T13:03:32.880Z,3.73
2017-08-31T13:06:00.596Z,5.47
2017-08-31T13:08:28.372Z,4.13
2017-08-31T13:10:56.084Z,3.90
2017-08-31T13:13:23.858Z,4.00
2017-08-31T13:15:51.635Z,3.47
2017-08-31T13:18:19.427Z,4.00
2017-08-31T13:20:47.208Z,4.40
2017-08-31T13:23:14.989Z,4.68
2017-08-31T13:25:42.700Z,3.80
2017-08-31T13:28:10.437Z,5.00
2017-08-31T13:30:38.155Z,4.60
2017-08-31T13:33:05.892Z,4.37
2017-08-31T13:35:33.724Z,4.27
2017-08-31T13:38:01.543Z,4.50
2017-08-31T13:40:29.262Z,3.80
2017-08-31T13:42:56.985Z,4.13
2017-08-31T13:45:24.787Z,4.30
2017-08-31T13:47:52.535Z,4.10
2017-08-31T13:50:20.366Z,4.30
2017-08-31T13:52:48.317Z,4.50
2017-08-31T13:55:16.101Z,4.00
2017-08-31T13:57:43.913Z,4.20
2017-08-31T14:00:11.692Z,4.23
2017-08-31T14:02:39.458Z,3.70
2017-08-31T14:05:07.173Z,3.90
2017-08-31T14:07:34.901Z,4.90
2017-08-31T14:10:02.625Z,4.17
2017-08-31T14:12:30.451Z,4.10
2017-08-31T14:14:58.224Z,4.60
2017-08-31T14:17:26.035Z,4.10
2017-08-31T14:19:53.887Z,4.30
2017-08-31T14:22:21.660Z,3.57
2017-08-31T14:24:49.442Z,4.20
2017-08-31T14:27:17.285Z,4.63
2017-08-31T14:29:45.010Z,4.60
2017-08-31T14:32:12.781Z,3.90
2017-08-31T14:34:40.690Z,4.20
2017-08-31T14:37:08.480Z,3.73
2017-08-31T14:39:36.205Z,4.67
2017-08-31T14:42:03.980Z,4.70
2017-08-31T14:44:31.729Z,4.97
2017-08-31T14:46:59.448Z,4.63
2017-08-31T14:49:27.237Z,4.17
2017-08-31T14:51:55.003Z,4.37
2017-08-31T14:54:22.780Z,4.90
2017-08-31T14:56:50.644Z,4.47
2017-08-31T14:59:18.360Z,4.37
2017-08-31T15:01:46.153Z,4.80
2017-08-31T15:04:13.880Z,4.67
2017-08-31T15:06:41.664Z,4.50
2017-08-31T15:09:09.389Z,4.77
2017-08-31T15:11:37.132Z,4.57
2017-08-31T15:14:04.857Z,4.73
2017-08-31T15:16:32.619Z,4.10
2017-08-31T15:19:00.437Z,4.20
2017-08-31T15:21:28.186Z,4.43
2017-08-31T15:23:55.916Z,4.33
2017-08-31T15:26:23.812Z,4.00
2017-08-31T15:28:51.559Z,4.17
2017-08-31T15:31:19.360Z,4.33
2017-08-31T15:33:47.146Z,4.30
2017-08-31T15:36:14.946Z,4.23
2017-08-31T15:38:42.686Z,5.20
2017-08-31T15:41:10.561Z,4.40
2017-08-31T15:43:38.327Z,4.57
2017-08-31T15:46:06.035Z,4.00
2017-08-31T15:48:33.839Z,4.30
2017-08-31T15:51:01.568Z,4.30
2017-08-31T15:53:29.296Z,4.37
2017-08-31T15:55:57.077Z,4.20
2017-08-31T15:58:24.797Z,4.20
2017-08-31T16:00:52.512Z,4.50
2017-08-31T16:03:20.307Z,4.70
2017-08-31T16:05:48.115Z,6.10
2017-08-31T16:08:15.882Z,4.40
2017-08-31T16:10:43.596Z,4.53
2017-08-31T16:13:11.316Z,5.10
2017-08-31T16:15:39.048Z,4.93
2017-08-31T16:18:06.770Z,4.50
2017-08-31T16:20:34.484Z,4.53
2017-08-31T16:23:02.264Z,4.53
2017-08-31T16:25:30.074Z,4.60
2017-08-31T16:27:57.860Z,4.53
2017-08-31T16:30:25.596Z,5.07
2017-08-31T16:32:53.401Z,4.90
2017-08-31T16:35:21.194Z,5.20
2017-08-31T16:37:48.914Z,6.53
2017-08-31T16:40:16.721Z,4.77
2017-08-31T16:42:44.537Z,6.60
2017-08-31T16:45:12.341Z,5.20
2017-08-31T16:47:40.148Z,6.40
2017-08-31T16:50:07.923Z,5.27
2017-08-31T16:52:35.647Z,7.57
2017-08-31T16:55:03.543Z,5.30
2017-08-31T16:57:31.315Z,6.37
2017-08-31T16:59:59.037Z,5.53
2017-08-31T17:02:26.869Z,6.50
2017-08-31T17:04:54.691Z,6.13
2017-08-31T17:07:22.423Z,5.53
2017-08-31T17:09:50.162Z,6.73
2017-08-31T17:12:19.369Z,5.80
2017-08-31T17:14:49.400Z,4.90
2017-08-31T17:17:19.186Z,4.43
2017-08-31T17:19:48.849Z,5.77
2017-08-31T17:22:16.731Z,5.90
2017-08-31T17:24:44.448Z,6.90
2017-08-31T17:27:12.311Z,5.20
2017-08-31T17:29:40.088Z,5.60
2017-08-31T17:32:07.815Z,5.93
2017-08-31T17:34:35.556Z,5.83
2017-08-31T17:37:03.345Z,5.77
2017-08-31T17:39:31.973Z,5.37
2017-08-31T17:42:00.759Z,5.30
2017-08-31T17:44:28.475Z,5.50
2017-08-31T17:46:56.217Z,5.63
2017-08-31T17:49:24.001Z,5.67
2017-08-31T17:51:53.415Z,5.27
2017-08-31T17:54:21.144Z,5.10
2017-08-31T17:56:48.941Z,5.87
2017-08-31T17:59:16.725Z,6.33
2017-08-31T18:01:44.601Z,4.60
2017-08-31T18:04:12.382Z,5.70
2017-08-31T18:06:40.174Z,6.63
2017-08-31T18:09:08.000Z,6.10
2017-08-31T18:11:35.797Z,11.23
2017-08-31T18:14:03.544Z,7.10
2017-08-31T18:16:31.412Z,6.60
2017-08-31T18:18:59.201Z,6.07
2017-08-31T18:21:28.286Z,6.43
2017-08-31T18:23:56.217Z,7.43
2017-08-31T18:26:24.009Z,7.00
2017-08-31T18:28:51.787Z,6.67
2017-08-31T18:31:19.602Z,9.03
2017-08-31T18:33:47.337Z,7.47
2017-08-31T18:36:15.091Z,5.50
2017-08-31T18:38:43.219Z,4.83
2017-08-31T18:41:11.026Z,5.23
2017-08-31T18:43:38.758Z,5.13
2017-08-31T18:46:06.491Z,5.03
2017-08-31T18:48:34.200Z,4.60
2017-08-31T18:51:01.924Z,4.20
2017-08-31T18:53:29.790Z,6.10
2017-08-31T18:55:57.652Z,4.60
2017-08-31T18:58:25.508Z,5.10
2017-08-31T19:00:53.262Z,4.70
2017-08-31T19:03:21.006Z,4.03
2017-08-31T19:05:48.793Z,3.83
2017-08-31T19:08:16.616Z,4.80
2017-08-31T19:10:44.363Z,3.60
2017-08-31T19:13:12.140Z,3.90
2017-08-31T19:15:39.867Z,3.20
2017-08-31T19:18:07.597Z,3.23
2017-08-31T19:20:35.397Z,3.97
2017-08-31T19:23:03.245Z,4.57
2017-08-31T19:25:31.064Z,3.47
2017-08-31T19:27:59.089Z,3.70
2017-08-31T19:30:26.887Z,3.27
2017-08-31T19:32:54.652Z,3.97
2017-08-31T19:35:22.382Z,3.80
2017-08-31T19:37:50.111Z,3.63
2017-08-31T19:40:17.835Z,4.00
2017-08-31T19:42:45.928Z,3.63
2017-08-31T19:45:13.983Z,4.00
2017-08-31T19:47:41.828Z,5.47
2017-08-31T19:50:10.630Z,4.20
2017-08-31T19:52:38.386Z,4.03
2017-08-31T19:55:06.180Z,4.13
2017-08-31T19:57:34.356Z,3.40
2017-08-31T20:00:02.102Z,4.27
2017-08-31T20:02:29.829Z,4.60
2017-08-31T20:04:58.330Z,4.00
2017-08-31T20:07:26.865Z,3.63
2017-08-31T20:09:54.886Z,3.67
2017-08-31T20:12:22.678Z,3.83
2017-08-31T20:14:50.549Z,3.60
2017-08-31T20:17:18.524Z,4.33
2017-08-31T20:19:46.248Z,3.63
2017-08-31T20:22:13.956Z,3.77
2017-08-31T20:24:42.430Z,3.40
2017-08-31T20:27:10.288Z,4.10
2017-08-31T20:29:38.074Z,3.87
2017-08-31T20:32:05.936Z,4.43
2017-08-31T20:34:33.715Z,4.00
2017-08-31T20:37:01.483Z,4.67
2017-08-31T20:39:29.264Z,4.57
2017-08-31T20:41:57.031Z,3.77
2017-08-31T20:44:24.777Z,5.00
2017-08-31T20:46:52.518Z,4.13
2017-08-31T20:49:21.074Z,4.30
2017-08-31T20:51:48.835Z,4.30
2017-08-31T20:54:16.600Z,4.63
2017-08-31T20:56:44.317Z,4.23
2017-08-31T20:59:12.052Z,5.00
2017-08-31T21:01:40.687Z,4.63
2017-08-31T21:04:08.569Z,3.80
2017-08-31T21:06:36.864Z,5.50
2017-08-31T21:09:04.862Z,6.10
2017-08-31T21:11:32.700Z,5.40
2017-08-31T21:14:00.503Z,5.60
2017-08-31T21:16:28.313Z,4.93
2017-08-31T21:18:56.848Z,6.20
2017-08-31T21:22:13.925Z,6.27
2017-08-31T21:24:45.621Z,6.87
2017-08-31T21:27:13.516Z,6.77
2017-08-31T21:29:41.863Z,5.90
2017-08-31T21:32:09.683Z,6.00
2017-08-31T21:34:37.510Z,7.07
2017-08-31T21:37:05.228Z,6.77
2017-08-31T21:39:32.949Z,6.93
2017-08-31T21:42:00.665Z,6.80
2017-08-31T21:44:28.390Z,5.80
2017-08-31T21:46:56.124Z,6.18
2017-08-31T21:49:23.907Z,6.43
2017-08-31T21:51:51.639Z,6.17
2017-08-31T21:54:19.369Z,6.20
2017-08-31T21:56:47.179Z,5.83
2017-08-31T21:59:14.964Z,5.73
2017-08-31T22:01:42.750Z,5.73
2017-08-31T22:04:10.538Z,5.30
2017-08-31T22:06:38.364Z,5.73
2017-08-31T22:09:06.100Z,4.90
2017-08-31T22:11:33.900Z,5.60
2017-08-31T22:14:01.629Z,5.03
2017-08-31T22:16:29.347Z,5.20
2017-08-31T22:18:57.152Z,4.77
2017-08-31T22:21:24.923Z,5.70
2017-08-31T22:23:52.643Z,4.80
2017-08-31T22:26:20.385Z,3.80
2017-08-31T22:28:48.165Z,3.70
2017-08-31T22:31:16.654Z,3.90
2017-08-31T22:33:44.448Z,4.87
2017-08-31T22:36:12.181Z,3.80
2017-08-31T22:38:39.891Z,4.17
2017-08-31T22:41:07.695Z,4.47
2017-08-31T22:43:35.472Z,4.27
2017-08-31T22:46:03.211Z,5.43
2017-08-31T22:48:31.093Z,4.20
2017-08-31T22:50:58.834Z,4.37
2017-08-31T22:53:26.553Z,4.13
2017-08-31T22:55:54.368Z,4.10
2017-08-31T22:58:22.083Z,4.70
2017-08-31T23:00:49.872Z,5.20
2017-08-31T23:03:17.606Z,4.30
2017-08-31T23:05:45.384Z,4.77
2017-08-31T23:08:13.106Z,4.47
2017-08-31T23:10:40.916Z,4.33
2017-08-31T23:13:08.707Z,4.17
2017-08-31T23:15:36.449Z,4.10
2017-08-31T23:18:04.167Z,4.20
2017-08-31T23:20:31.874Z,5.10
2017-08-31T23:22:59.653Z,4.93
2017-08-31T23:25:27.439Z,4.87
2017-08-31T23:27:55.184Z,4.93
2017-08-31T23:30:22.964Z,4.67
2017-08-31T23:32:50.765Z,5.03
2017-08-31T23:35:18.492Z,4.87
2017-08-31T23:37:46.308Z,5.30
2017-08-31T23:40:14.088Z,5.50
2017-08-31T23:42:41.821Z,5.23
2017-08-31T23:45:09.623Z,5.30
2017-08-31T23:47:37.503Z,5.73
2017-08-31T23:50:05.289Z,5.17
2017-08-31T23:52:33.002Z,4.97
2017-08-31T23:55:00.787Z,5.90
2017-08-31T23:57:28.568Z,4.70
2017-08-31T23:59:56.300Z,5.30
